sensor_id;sensor_type;location;lat;lon;timestamp;pressure;altitude;pressure_sealevel;temperature;humidity
22830;BME280;11581;51.250;6.778;2022-12-16T00:01:02;100618.44;;;-1.34;65.33
22830;BME280;11581;51.250;6.778;2022-12-16T00:03:30;100619.47;;;-1.37;65.01
22830;BME280;11581;51.250;6.778;2022-12-16T00:05:57;100620.34;;;-1.38;64.71
22830;BME280;11581;51.250;6.778;2022-12-16T00:08:24;100613.53;;;-1.40;64.88
22830;BME280;11581;51.250;6.778;2022-12-16T00:10:56;100584.66;;;-1.56;65.22
22830;BME280;11581;51.250;6.778;2022-12-16T00:13:23;100603.28;;;-1.45;64.69
22830;BME280;11581;51.250;6.778;2022-12-16T00:15:51;100611.13;;;-1.45;64.71
22830;BME280;11581;51.250;6.778;2022-12-16T00:18:18;100609.53;;;-1.47;64.88
22830;BME280;11581;51.250;6.778;2022-12-16T00:20:48;100621.81;;;-1.49;65.16
22830;BME280;11581;51.250;6.778;2022-12-16T00:23:15;100555.63;;;-1.85;64.75
22830;BME280;11581;51.250;6.778;2022-12-16T00:25:44;100587.13;;;-1.88;64.64
22830;BME280;11581;51.250;6.778;2022-12-16T00:28:13;100611.72;;;-1.57;65.14
22830;BME280;11581;51.250;6.778;2022-12-16T00:30:46;100497.66;;;-2.29;64.86
22830;BME280;11581;51.250;6.778;2022-12-16T00:33:13;100605.88;;;-1.62;64.75
22830;BME280;11581;51.250;6.778;2022-12-16T00:35:40;100612.13;;;-1.64;64.97
22830;BME280;11581;51.250;6.778;2022-12-16T00:38:08;100610.47;;;-1.67;64.99
22830;BME280;11581;51.250;6.778;2022-12-16T00:40:35;100633.34;;;-1.70;65.28
22830;BME280;11581;51.250;6.778;2022-12-16T00:43:02;100610.59;;;-1.87;65.17
22830;BME280;11581;51.250;6.778;2022-12-16T00:45:29;100592.66;;;-1.94;65.04
22830;BME280;11581;51.250;6.778;2022-12-16T00:47:56;100581.50;;;-1.98;64.85
22830;BME280;11581;51.250;6.778;2022-12-16T00:50:23;100623.31;;;-1.79;64.65
22830;BME280;11581;51.250;6.778;2022-12-16T00:52:50;100616.53;;;-1.83;64.96
22830;BME280;11581;51.250;6.778;2022-12-16T00:55:19;100591.19;;;-2.00;65.45
22830;BME280;11581;51.250;6.778;2022-12-16T00:57:46;100624.53;;;-1.86;65.15
22830;BME280;11581;51.250;6.778;2022-12-16T01:00:14;100588.72;;;-2.03;65.22
22830;BME280;11581;51.250;6.778;2022-12-16T01:02:42;100584.78;;;-2.11;65.31
22830;BME280;11581;51.250;6.778;2022-12-16T01:05:11;100618.66;;;-1.91;65.12
22830;BME280;11581;51.250;6.778;2022-12-16T01:07:38;100601.00;;;-2.05;65.19
22830;BME280;11581;51.250;6.778;2022-12-16T01:10:07;100610.19;;;-1.96;65.25
22830;BME280;11581;51.250;6.778;2022-12-16T01:12:35;100624.16;;;-1.97;65.54
22830;BME280;11581;51.250;6.778;2022-12-16T01:15:06;100610.63;;;-2.05;65.28
22830;BME280;11581;51.250;6.778;2022-12-16T01:17:37;100624.31;;;-2.00;65.44
22830;BME280;11581;51.250;6.778;2022-12-16T01:20:04;100641.84;;;-2.02;65.03
22830;BME280;11581;51.250;6.778;2022-12-16T01:22:32;100594.25;;;-2.28;65.03
22830;BME280;11581;51.250;6.778;2022-12-16T01:24:59;100640.31;;;-2.06;65.54
22830;BME280;11581;51.250;6.778;2022-12-16T01:27:26;100535.81;;;-2.81;65.34
22830;BME280;11581;51.250;6.778;2022-12-16T01:29:56;100606.53;;;-2.30;65.45
22830;BME280;11581;51.250;6.778;2022-12-16T01:32:24;100580.25;;;-2.45;65.58
22830;BME280;11581;51.250;6.778;2022-12-16T01:34:51;100605.75;;;-2.32;65.68
22830;BME280;11581;51.250;6.778;2022-12-16T01:37:19;100633.91;;;-2.19;65.76
22830;BME280;11581;51.250;6.778;2022-12-16T01:39:46;100647.50;;;-2.11;65.81
22830;BME280;11581;51.250;6.778;2022-12-16T01:42:14;100647.56;;;-2.13;65.63
22830;BME280;11581;51.250;6.778;2022-12-16T01:44:43;100635.78;;;-2.21;65.79
22830;BME280;11581;51.250;6.778;2022-12-16T01:47:16;100641.75;;;-2.19;65.82
22830;BME280;11581;51.250;6.778;2022-12-16T01:49:45;100654.53;;;-2.13;65.80
22830;BME280;11581;51.250;6.778;2022-12-16T01:52:17;100662.38;;;-2.13;65.64
22830;BME280;11581;51.250;6.778;2022-12-16T01:54:48;100634.97;;;-2.23;65.63
22830;BME280;11581;51.250;6.778;2022-12-16T01:57:19;100659.91;;;-2.16;65.36
22830;BME280;11581;51.250;6.778;2022-12-16T01:59:50;100659.97;;;-2.18;65.51
22830;BME280;11581;51.250;6.778;2022-12-16T02:02:21;100666.13;;;-2.19;65.48
22830;BME280;11581;51.250;6.778;2022-12-16T02:04:48;100639.00;;;-2.35;65.76
22830;BME280;11581;51.250;6.778;2022-12-16T02:07:29;100536.09;;;-3.07;65.21
22830;BME280;11581;51.250;6.778;2022-12-16T02:09:57;100644.44;;;-2.40;65.35
22830;BME280;11581;51.250;6.778;2022-12-16T02:12:28;100662.03;;;-2.24;65.58
22830;BME280;11581;51.250;6.778;2022-12-16T02:15:10;100625.66;;;-2.48;65.38
22830;BME280;11581;51.250;6.778;2022-12-16T02:17:46;100661.31;;;-2.28;65.48
22830;BME280;11581;51.250;6.778;2022-12-16T02:26:49;100658.75;;;-2.30;65.79
22830;BME280;11581;51.250;6.778;2022-12-16T02:29:43;100655.00;;;-2.43;65.46
22830;BME280;11581;51.250;6.778;2022-12-16T02:32:20;100657.22;;;-2.34;65.54
22830;BME280;11581;51.250;6.778;2022-12-16T02:34:56;100679.66;;;-2.30;65.51
22830;BME280;11581;51.250;6.778;2022-12-16T02:37:29;100678.78;;;-2.28;65.77
22830;BME280;11581;51.250;6.778;2022-12-16T02:39:59;100528.69;;;-3.16;65.20
22830;BME280;11581;51.250;6.778;2022-12-16T02:42:29;100662.72;;;-2.40;65.32
22830;BME280;11581;51.250;6.778;2022-12-16T02:45:00;100678.91;;;-2.32;65.35
22830;BME280;11581;51.250;6.778;2022-12-16T02:47:31;100522.81;;;-3.21;65.42
22830;BME280;11581;51.250;6.778;2022-12-16T02:49:59;100666.75;;;-2.33;65.44
22830;BME280;11581;51.250;6.778;2022-12-16T02:52:28;100672.03;;;-2.34;65.31
22830;BME280;11581;51.250;6.778;2022-12-16T02:55:01;100649.16;;;-2.48;65.31
22830;BME280;11581;51.250;6.778;2022-12-16T02:57:47;100669.41;;;-2.34;65.70
22830;BME280;11581;51.250;6.778;2022-12-16T03:00:17;100672.91;;;-2.34;65.44
22830;BME280;11581;51.250;6.778;2022-12-16T03:02:55;100666.81;;;-2.34;65.52
22830;BME280;11581;51.250;6.778;2022-12-16T03:05:27;100677.25;;;-2.34;65.39
22830;BME280;11581;51.250;6.778;2022-12-16T03:07:58;100684.25;;;-2.35;65.38
22830;BME280;11581;51.250;6.778;2022-12-16T03:10:28;100654.78;;;-2.57;65.51
22830;BME280;11581;51.250;6.778;2022-12-16T03:13:09;100681.72;;;-2.36;65.69
22830;BME280;11581;51.250;6.778;2022-12-16T03:15:40;100651.84;;;-2.49;65.26
22830;BME280;11581;51.250;6.778;2022-12-16T03:18:11;100596.03;;;-2.85;65.56
22830;BME280;11581;51.250;6.778;2022-12-16T03:20:42;100708.78;;;-2.37;65.60
22830;BME280;11581;51.250;6.778;2022-12-16T03:23:14;100595.44;;;-2.92;65.16
22830;BME280;11581;51.250;6.778;2022-12-16T03:25:44;100657.25;;;-2.54;65.16
22830;BME280;11581;51.250;6.778;2022-12-16T03:28:31;100671.88;;;-2.50;65.27
22830;BME280;11581;51.250;6.778;2022-12-16T03:31:06;100680.25;;;-2.42;65.23
22830;BME280;11581;51.250;6.778;2022-12-16T03:33:40;100638.22;;;-2.76;65.01
22830;BME280;11581;51.250;6.778;2022-12-16T03:36:14;100686.00;;;-2.54;65.08
22830;BME280;11581;51.250;6.778;2022-12-16T03:38:43;100620.69;;;-2.92;65.01
22830;BME280;11581;51.250;6.778;2022-12-16T03:41:12;100693.69;;;-2.51;65.07
22830;BME280;11581;51.250;6.778;2022-12-16T03:43:40;100699.06;;;-2.54;64.78
22830;BME280;11581;51.250;6.778;2022-12-16T03:46:07;100688.66;;;-2.55;64.88
22830;BME280;11581;51.250;6.778;2022-12-16T03:48:35;100644.91;;;-2.89;64.80
22830;BME280;11581;51.250;6.778;2022-12-16T03:51:12;100676.34;;;-2.72;64.63
22830;BME280;11581;51.250;6.778;2022-12-16T03:53:39;100676.34;;;-2.72;64.85
22830;BME280;11581;51.250;6.778;2022-12-16T03:56:06;100696.06;;;-2.65;64.91
22830;BME280;11581;51.250;6.778;2022-12-16T03:58:32;100658.00;;;-2.90;65.05
22830;BME280;11581;51.250;6.778;2022-12-16T04:01:00;100701.56;;;-2.71;64.91
22830;BME280;11581;51.250;6.778;2022-12-16T04:03:27;100698.94;;;-2.71;64.76
22830;BME280;11581;51.250;6.778;2022-12-16T04:05:54;100699.06;;;-2.74;64.91
22830;BME280;11581;51.250;6.778;2022-12-16T04:08:22;100667.66;;;-2.92;64.80
22830;BME280;11581;51.250;6.778;2022-12-16T04:10:50;100697.47;;;-2.78;64.73
22830;BME280;11581;51.250;6.778;2022-12-16T04:13:34;100589.19;;;-3.48;64.89
22830;BME280;11581;51.250;6.778;2022-12-16T04:16:18;100695.41;;;-2.90;64.81
22830;BME280;11581;51.250;6.778;2022-12-16T04:19:03;100706.50;;;-2.85;64.53
22830;BME280;11581;51.250;6.778;2022-12-16T04:21:48;100614.53;;;-3.51;64.72
22830;BME280;11581;51.250;6.778;2022-12-16T04:24:34;100634.91;;;-3.39;64.91
22830;BME280;11581;51.250;6.778;2022-12-16T04:27:01;100716.41;;;-2.93;64.90
22830;BME280;11581;51.250;6.778;2022-12-16T04:29:46;100723.38;;;-2.93;64.84
22830;BME280;11581;51.250;6.778;2022-12-16T04:32:30;100704.84;;;-3.07;64.68
22830;BME280;11581;51.250;6.778;2022-12-16T04:35:17;100730.44;;;-2.95;64.78
22830;BME280;11581;51.250;6.778;2022-12-16T04:38:02;100700.81;;;-3.14;64.72
22830;BME280;11581;51.250;6.778;2022-12-16T04:40:48;100737.47;;;-2.97;65.08
22830;BME280;11581;51.250;6.778;2022-12-16T04:43:32;100737.53;;;-2.99;64.93
22830;BME280;11581;51.250;6.778;2022-12-16T04:46:16;100734.06;;;-2.99;64.86
22830;BME280;11581;51.250;6.778;2022-12-16T04:49:02;100683.09;;;-3.28;65.20
22830;BME280;11581;51.250;6.778;2022-12-16T04:51:46;100723.19;;;-3.09;64.87
22830;BME280;11581;51.250;6.778;2022-12-16T04:54:31;100733.38;;;-3.03;65.09
22830;BME280;11581;51.250;6.778;2022-12-16T04:57:16;100736.88;;;-3.04;64.88
22830;BME280;11581;51.250;6.778;2022-12-16T05:00:02;100718.34;;;-3.18;65.26
22830;BME280;11581;51.250;6.778;2022-12-16T05:02:49;100706.50;;;-3.26;65.17
22830;BME280;11581;51.250;6.778;2022-12-16T05:05:34;100776.88;;;-3.03;65.27
22830;BME280;11581;51.250;6.778;2022-12-16T05:08:19;100748.16;;;-3.03;64.99
22830;BME280;11581;51.250;6.778;2022-12-16T05:11:05;100729.00;;;-3.24;64.95
22830;BME280;11581;51.250;6.778;2022-12-16T05:13:51;100751.63;;;-3.03;65.07
22830;BME280;11581;51.250;6.778;2022-12-16T05:16:36;100753.38;;;-3.03;64.95
22830;BME280;11581;51.250;6.778;2022-12-16T05:19:20;100634.44;;;-3.92;65.06
22830;BME280;11581;51.250;6.778;2022-12-16T05:22:05;100746.03;;;-3.15;65.24
22830;BME280;11581;51.250;6.778;2022-12-16T05:24:50;100773.28;;;-3.01;65.02
22830;BME280;11581;51.250;6.778;2022-12-16T05:27:34;100775.81;;;-2.99;65.06
22830;BME280;11581;51.250;6.778;2022-12-16T05:30:19;100778.44;;;-2.99;65.07
22830;BME280;11581;51.250;6.778;2022-12-16T05:33:03;100650.25;;;-3.75;65.03
22830;BME280;11581;51.250;6.778;2022-12-16T05:35:47;100785.44;;;-3.00;64.78
22830;BME280;11581;51.250;6.778;2022-12-16T05:38:32;100771.25;;;-3.14;65.20
22830;BME280;11581;51.250;6.778;2022-12-16T05:41:16;100801.09;;;-3.00;65.10
22830;BME280;11581;51.250;6.778;2022-12-16T05:44:00;100803.75;;;-3.01;64.84
22830;BME280;11581;51.250;6.778;2022-12-16T05:46:46;100806.31;;;-3.00;64.91
22830;BME280;11581;51.250;6.778;2022-12-16T05:49:30;100809.81;;;-3.01;65.02
22830;BME280;11581;51.250;6.778;2022-12-16T05:52:14;100825.47;;;-3.01;65.01
22830;BME280;11581;51.250;6.778;2022-12-16T05:54:58;100824.59;;;-3.00;64.72
22830;BME280;11581;51.250;6.778;2022-12-16T05:57:43;100836.72;;;-2.99;64.67
22830;BME280;11581;51.250;6.778;2022-12-16T06:00:28;100820.50;;;-3.07;64.50
22830;BME280;11581;51.250;6.778;2022-12-16T06:03:16;100822.88;;;-3.01;64.50
22830;BME280;11581;51.250;6.778;2022-12-16T06:06:01;100828.06;;;-3.01;64.35
22830;BME280;11581;51.250;6.778;2022-12-16T06:08:45;100832.53;;;-3.03;64.67
22830;BME280;11581;51.250;6.778;2022-12-16T06:11:29;100829.13;;;-3.05;64.57
22830;BME280;11581;51.250;6.778;2022-12-16T06:14:13;100808.84;;;-3.20;64.34
22830;BME280;11581;51.250;6.778;2022-12-16T06:16:58;100691.66;;;-3.89;64.63
22830;BME280;11581;51.250;6.778;2022-12-16T06:19:43;100832.78;;;-3.09;64.67
22830;BME280;11581;51.250;6.778;2022-12-16T06:22:28;100835.31;;;-3.07;64.85
22830;BME280;11581;51.250;6.778;2022-12-16T06:25:13;100836.16;;;-3.07;64.81
22830;BME280;11581;51.250;6.778;2022-12-16T06:27:58;100828.31;;;-3.07;64.76
22830;BME280;11581;51.250;6.778;2022-12-16T06:30:42;100837.88;;;-3.06;64.64
22830;BME280;11581;51.250;6.778;2022-12-16T06:33:26;100819.28;;;-3.20;64.60
22830;BME280;11581;51.250;6.778;2022-12-16T06:36:13;100831.19;;;-3.13;64.65
22830;BME280;11581;51.250;6.778;2022-12-16T06:38:57;100830.50;;;-3.18;64.78
22830;BME280;11581;51.250;6.778;2022-12-16T06:41:41;100849.03;;;-3.02;65.01
22830;BME280;11581;51.250;6.778;2022-12-16T06:44:25;100849.03;;;-3.02;64.76
22830;BME280;11581;51.250;6.778;2022-12-16T06:47:11;100854.13;;;-2.99;65.10
22830;BME280;11581;51.250;6.778;2022-12-16T06:49:56;100834.69;;;-3.14;65.12
22830;BME280;11581;51.250;6.778;2022-12-16T06:52:42;100832.88;;;-3.12;65.02
22830;BME280;11581;51.250;6.778;2022-12-16T06:55:26;100868.78;;;-2.95;64.96
22830;BME280;11581;51.250;6.778;2022-12-16T06:58:10;100870.41;;;-2.93;65.05
22830;BME280;11581;51.250;6.778;2022-12-16T07:00:57;100867.66;;;-2.90;64.85
22830;BME280;11581;51.250;6.778;2022-12-16T07:03:41;100855.09;;;-3.02;65.06
22830;BME280;11581;51.250;6.778;2022-12-16T07:06:25;100867.84;;;-2.94;64.94
22830;BME280;11581;51.250;6.778;2022-12-16T07:09:10;100794.03;;;-3.41;65.14
22830;BME280;11581;51.250;6.778;2022-12-16T07:11:55;100864.56;;;-2.99;64.85
22830;BME280;11581;51.250;6.778;2022-12-16T07:14:39;100898.63;;;-2.81;65.11
22830;BME280;11581;51.250;6.778;2022-12-16T07:17:28;100904.63;;;-2.79;65.24
22830;BME280;11581;51.250;6.778;2022-12-16T07:20:12;100881.00;;;-2.97;65.09
22830;BME280;11581;51.250;6.778;2022-12-16T07:22:57;100907.31;;;-2.80;65.00
22830;BME280;11581;51.250;6.778;2022-12-16T07:25:43;100844.47;;;-3.19;64.94
22830;BME280;11581;51.250;6.778;2022-12-16T07:28:29;100935.72;;;-2.73;65.25
22830;BME280;11581;51.250;6.778;2022-12-16T07:31:13;100908.41;;;-2.86;65.05
22830;BME280;11581;51.250;6.778;2022-12-16T07:33:57;100931.31;;;-2.71;64.97
22830;BME280;11581;51.250;6.778;2022-12-16T07:36:42;100936.53;;;-2.71;64.73
22830;BME280;11581;51.250;6.778;2022-12-16T07:39:26;100804.56;;;-3.65;64.77
22830;BME280;11581;51.250;6.778;2022-12-16T07:42:11;100941.69;;;-2.69;65.32
22830;BME280;11581;51.250;6.778;2022-12-16T07:44:55;100927.34;;;-2.81;64.81
22830;BME280;11581;51.250;6.778;2022-12-16T07:47:45;100957.28;;;-2.68;64.88
22830;BME280;11581;51.250;6.778;2022-12-16T07:50:29;100943.56;;;-2.73;64.86
22830;BME280;11581;51.250;6.778;2022-12-16T07:53:14;100948.78;;;-2.73;64.98
22830;BME280;11581;51.250;6.778;2022-12-16T07:55:58;100961.47;;;-2.64;65.11
22830;BME280;11581;51.250;6.778;2022-12-16T07:58:43;100939.25;;;-2.74;64.97
22830;BME280;11581;51.250;6.778;2022-12-16T08:01:27;100970.22;;;-2.65;65.26
22830;BME280;11581;51.250;6.778;2022-12-16T08:04:11;100941.94;;;-2.75;65.71
22830;BME280;11581;51.250;6.778;2022-12-16T08:06:56;100944.34;;;-2.71;66.07
22830;BME280;11581;51.250;6.778;2022-12-16T08:09:40;100980.28;;;-2.34;66.55
22830;BME280;11581;51.250;6.778;2022-12-16T08:12:25;101007.09;;;-2.07;67.25
22830;BME280;11581;51.250;6.778;2022-12-16T08:15:11;101005.31;;;-1.85;67.45
22830;BME280;11581;51.250;6.778;2022-12-16T08:17:58;101000.75;;;-1.60;66.92
22830;BME280;11581;51.250;6.778;2022-12-16T08:20:42;100948.81;;;-1.69;67.10
22830;BME280;11581;51.250;6.778;2022-12-16T08:23:26;101000.31;;;-1.11;66.79
22830;BME280;11581;51.250;6.778;2022-12-16T08:26:10;100967.06;;;-1.09;66.45
22830;BME280;11581;51.250;6.778;2022-12-16T08:29:00;100996.81;;;-0.73;65.85
22830;BME280;11581;51.250;6.778;2022-12-16T08:31:48;100995.66;;;-0.49;64.88
22830;BME280;11581;51.250;6.778;2022-12-16T08:34:32;101016.50;;;-0.29;65.79
22830;BME280;11581;51.250;6.778;2022-12-16T08:37:29;101009.19;;;-0.04;65.68
22830;BME280;11581;51.250;6.778;2022-12-16T08:40:13;101001.34;;;0.13;65.52
22830;BME280;11581;51.250;6.778;2022-12-16T08:42:57;101014.69;;;0.43;64.33
22830;BME280;11581;51.250;6.778;2022-12-16T08:45:42;101027.81;;;0.60;64.28
22830;BME280;11581;51.250;6.778;2022-12-16T08:48:27;101031.41;;;0.74;63.91
22830;BME280;11581;51.250;6.778;2022-12-16T08:51:11;100983.38;;;0.57;63.99
22830;BME280;11581;51.250;6.778;2022-12-16T08:53:55;101033.56;;;1.00;63.45
22830;BME280;11581;51.250;6.778;2022-12-16T08:56:40;101042.41;;;1.15;63.57
22830;BME280;11581;51.250;6.778;2022-12-16T08:59:22;101021.56;;;1.12;63.58
22830;BME280;11581;51.250;6.778;2022-12-16T09:02:08;101043.66;;;1.40;63.02
22830;BME280;11581;51.250;6.778;2022-12-16T09:04:54;101053.16;;;1.58;63.25
22830;BME280;11581;51.250;6.778;2022-12-16T09:07:38;101060.13;;;1.75;63.08
22830;BME280;11581;51.250;6.778;2022-12-16T09:10:22;101066.91;;;1.94;62.19
22830;BME280;11581;51.250;6.778;2022-12-16T09:13:08;100991.09;;;1.71;63.01
22830;BME280;11581;51.250;6.778;2022-12-16T09:15:52;101067.03;;;2.38;63.57
22830;BME280;11581;51.250;6.778;2022-12-16T09:18:37;100973.38;;;2.04;62.39
22830;BME280;11581;51.250;6.778;2022-12-16T09:21:23;101072.34;;;2.82;61.60
22830;BME280;11581;51.250;6.778;2022-12-16T09:24:07;101072.09;;;3.00;61.24
22830;BME280;11581;51.250;6.778;2022-12-16T09:26:51;101054.22;;;3.05;60.80
22830;BME280;11581;51.250;6.778;2022-12-16T09:29:36;101072.03;;;3.30;60.46
22830;BME280;11581;51.250;6.778;2022-12-16T09:32:21;101024.72;;;3.13;60.07
22830;BME280;11581;51.250;6.778;2022-12-16T09:35:05;101067.22;;;3.50;59.45
22830;BME280;11581;51.250;6.778;2022-12-16T09:37:53;101075.97;;;3.65;57.39
22830;BME280;11581;51.250;6.778;2022-12-16T09:40:38;101069.75;;;3.66;57.66
22830;BME280;11581;51.250;6.778;2022-12-16T09:43:47;101065.97;;;3.56;56.00
22830;BME280;11581;51.250;6.778;2022-12-16T09:46:40;101082.16;;;3.64;56.48
22830;BME280;11581;51.250;6.778;2022-12-16T09:49:39;101084.16;;;3.60;56.80
22830;BME280;11581;51.250;6.778;2022-12-16T09:52:24;101095.44;;;3.76;58.26
22830;BME280;11581;51.250;6.778;2022-12-16T09:55:21;101091.09;;;3.89;57.04
22830;BME280;11581;51.250;6.778;2022-12-16T09:58:21;101092.44;;;4.09;57.77
22830;BME280;11581;51.250;6.778;2022-12-16T10:01:09;101094.00;;;4.25;57.41
22830;BME280;11581;51.250;6.778;2022-12-16T10:03:55;101088.78;;;4.38;58.10
22830;BME280;11581;51.250;6.778;2022-12-16T10:06:43;101090.41;;;4.53;56.99
22830;BME280;11581;51.250;6.778;2022-12-16T10:09:31;101088.66;;;4.66;57.70
22830;BME280;11581;51.250;6.778;2022-12-16T10:12:31;101096.34;;;4.96;56.19
22830;BME280;11581;51.250;6.778;2022-12-16T10:15:28;101086.63;;;5.09;55.77
22830;BME280;11581;51.250;6.778;2022-12-16T10:18:28;101087.47;;;5.34;55.87
22830;BME280;11581;51.250;6.778;2022-12-16T10:21:20;101102.47;;;5.71;56.60
22830;BME280;11581;51.250;6.778;2022-12-16T10:24:08;101098.84;;;5.85;56.03
22830;BME280;11581;51.250;6.778;2022-12-16T10:27:04;101111.72;;;6.14;54.46
22830;BME280;11581;51.250;6.778;2022-12-16T10:29:55;101033.91;;;5.92;55.14
22830;BME280;11581;51.250;6.778;2022-12-16T10:32:48;101113.47;;;6.50;55.46
22830;BME280;11581;51.250;6.778;2022-12-16T10:35:35;101042.09;;;6.12;55.47
22830;BME280;11581;51.250;6.778;2022-12-16T10:38:24;101097.13;;;6.56;54.25
22830;BME280;11581;51.250;6.778;2022-12-16T10:41:14;101103.59;;;6.75;54.49
22830;BME280;11581;51.250;6.778;2022-12-16T10:44:05;101114.34;;;6.85;52.39
22830;BME280;11581;51.250;6.778;2022-12-16T10:46:57;101099.00;;;6.77;53.57
22830;BME280;11581;51.250;6.778;2022-12-16T10:49:42;101120.97;;;6.90;54.13
22830;BME280;11581;51.250;6.778;2022-12-16T10:52:27;101108.44;;;6.81;53.71
22830;BME280;11581;51.250;6.778;2022-12-16T10:55:21;101083.84;;;6.79;51.81
22830;BME280;11581;51.250;6.778;2022-12-16T10:58:15;101106.34;;;7.09;52.33
22830;BME280;11581;51.250;6.778;2022-12-16T11:01:20;101104.72;;;7.30;53.10
22830;BME280;11581;51.250;6.778;2022-12-16T11:04:28;101099.66;;;7.49;51.96
22830;BME280;11581;51.250;6.778;2022-12-16T11:07:23;101113.41;;;7.87;51.72
22830;BME280;11581;51.250;6.778;2022-12-16T11:10:25;101120.41;;;8.10;51.06
22830;BME280;11581;51.250;6.778;2022-12-16T11:13:18;101107.94;;;8.21;51.59
22830;BME280;11581;51.250;6.778;2022-12-16T11:16:11;101121.69;;;8.37;49.59
22830;BME280;11581;51.250;6.778;2022-12-16T11:18:52;101112.91;;;8.37;51.07
22830;BME280;11581;51.250;6.778;2022-12-16T11:21:38;101089.50;;;8.09;50.17
22830;BME280;11581;51.250;6.778;2022-12-16T11:24:22;101032.22;;;7.62;51.10
22830;BME280;11581;51.250;6.778;2022-12-16T11:27:21;101121.97;;;8.01;49.25
22830;BME280;11581;51.250;6.778;2022-12-16T11:30:16;101122.00;;;7.90;49.47
22830;BME280;11581;51.250;6.778;2022-12-16T11:33:09;101135.88;;;7.83;50.68
22830;BME280;11581;51.250;6.778;2022-12-16T11:36:04;101120.91;;;7.71;50.62
22830;BME280;11581;51.250;6.778;2022-12-16T11:38:51;101116.81;;;7.67;50.80
22830;BME280;11581;51.250;6.778;2022-12-16T11:41:37;101130.94;;;7.67;51.53
22830;BME280;11581;51.250;6.778;2022-12-16T11:44:27;101070.44;;;7.16;50.65
22830;BME280;11581;51.250;6.778;2022-12-16T11:47:19;101112.19;;;7.36;51.09
22830;BME280;11581;51.250;6.778;2022-12-16T11:50:10;101135.81;;;7.39;51.43
22830;BME280;11581;51.250;6.778;2022-12-16T11:52:59;101129.94;;;7.35;52.18
22830;BME280;11581;51.250;6.778;2022-12-16T11:55:48;101137.03;;;7.35;51.47
22830;BME280;11581;51.250;6.778;2022-12-16T11:58:39;101110.72;;;7.21;51.52
22830;BME280;11581;51.250;6.778;2022-12-16T12:01:30;101110.09;;;7.17;52.00
22830;BME280;11581;51.250;6.778;2022-12-16T12:04:15;101123.38;;;7.17;52.89
22830;BME280;11581;51.250;6.778;2022-12-16T12:07:12;101140.84;;;7.20;52.33
22830;BME280;11581;51.250;6.778;2022-12-16T12:10:07;101051.94;;;6.57;52.26
22830;BME280;11581;51.250;6.778;2022-12-16T12:13:01;101120.88;;;6.92;52.36
22830;BME280;11581;51.250;6.778;2022-12-16T12:15:54;101078.91;;;6.51;52.55
22830;BME280;11581;51.250;6.778;2022-12-16T12:18:46;101142.69;;;6.84;52.96
22830;BME280;11581;51.250;6.778;2022-12-16T12:21:40;101133.31;;;6.68;52.96
22830;BME280;11581;51.250;6.778;2022-12-16T12:24:31;101128.69;;;6.35;53.50
22830;BME280;11581;51.250;6.778;2022-12-16T12:27:20;101128.13;;;6.43;53.23
22830;BME280;11581;51.250;6.778;2022-12-16T12:30:13;101122.38;;;6.25;53.28
22830;BME280;11581;51.250;6.778;2022-12-16T12:33:29;101142.63;;;6.26;53.53
22830;BME280;11581;51.250;6.778;2022-12-16T12:36:23;101159.16;;;6.17;54.13
22830;BME280;11581;51.250;6.778;2022-12-16T12:39:12;101157.06;;;6.10;54.50
22830;BME280;11581;51.250;6.778;2022-12-16T12:42:11;101141.44;;;5.94;54.24
22830;BME280;11581;51.250;6.778;2022-12-16T12:45:10;101136.13;;;5.69;54.37
22830;BME280;11581;51.250;6.778;2022-12-16T12:48:10;101153.69;;;5.70;54.93
22830;BME280;11581;51.250;6.778;2022-12-16T12:51:05;101151.38;;;5.53;55.47
22830;BME280;11581;51.250;6.778;2022-12-16T12:53:59;101175.94;;;5.55;55.69
22830;BME280;11581;51.250;6.778;2022-12-16T12:56:48;101167.47;;;5.50;56.05
22830;BME280;11581;51.250;6.778;2022-12-16T12:59:40;101177.84;;;5.41;56.13
22830;BME280;11581;51.250;6.778;2022-12-16T13:02:28;101161.09;;;5.28;56.58
22830;BME280;11581;51.250;6.778;2022-12-16T13:05:29;101158.22;;;5.18;56.44
22830;BME280;11581;51.250;6.778;2022-12-16T13:08:44;101175.56;;;5.22;56.58
22830;BME280;11581;51.250;6.778;2022-12-16T13:11:36;101182.03;;;5.18;57.04
22830;BME280;11581;51.250;6.778;2022-12-16T13:18:12;101129.28;;;4.78;57.23
22830;BME280;11581;51.250;6.778;2022-12-16T13:21:35;101179.66;;;5.01;57.48
22830;BME280;11581;51.250;6.778;2022-12-16T13:24:36;101179.22;;;4.95;57.81
22830;BME280;11581;51.250;6.778;2022-12-16T13:27:23;100992.47;;;3.78;57.98
22830;BME280;11581;51.250;6.778;2022-12-16T13:30:21;101156.41;;;4.67;57.98
22830;BME280;11581;51.250;6.778;2022-12-16T13:33:19;101172.44;;;4.64;58.00
22830;BME280;11581;51.250;6.778;2022-12-16T13:36:05;101195.53;;;4.75;58.38
22830;BME280;11581;51.250;6.778;2022-12-16T13:38:52;101161.78;;;4.39;58.69
22830;BME280;11581;51.250;6.778;2022-12-16T13:41:58;101201.41;;;4.65;59.06
22830;BME280;11581;51.250;6.778;2022-12-16T13:45:14;101199.81;;;4.63;59.00
22830;BME280;11581;51.250;6.778;2022-12-16T13:48:26;101200.00;;;4.60;59.13
22830;BME280;11581;51.250;6.778;2022-12-16T13:51:05;101186.97;;;4.44;59.18
22830;BME280;11581;51.250;6.778;2022-12-16T13:53:50;101211.63;;;4.57;59.22
22830;BME280;11581;51.250;6.778;2022-12-16T13:56:39;101215.31;;;4.55;59.66
22830;BME280;11581;51.250;6.778;2022-12-16T13:59:30;101151.19;;;4.12;59.36
22830;BME280;11581;51.250;6.778;2022-12-16T14:02:19;101216.66;;;4.48;59.63
22830;BME280;11581;51.250;6.778;2022-12-16T14:05:16;101131.16;;;3.82;59.66
22830;BME280;11581;51.250;6.778;2022-12-16T14:08:03;101176.72;;;4.12;59.62
22830;BME280;11581;51.250;6.778;2022-12-16T14:10:55;101237.63;;;4.37;59.70
22830;BME280;11581;51.250;6.778;2022-12-16T14:13:45;101173.63;;;3.91;59.92
22830;BME280;11581;51.250;6.778;2022-12-16T14:16:47;101239.25;;;4.25;60.11
22830;BME280;11581;51.250;6.778;2022-12-16T14:19:45;101201.75;;;3.92;60.26
22830;BME280;11581;51.250;6.778;2022-12-16T14:22:47;101164.88;;;3.63;60.93
22830;BME280;11581;51.250;6.778;2022-12-16T14:25:34;101226.72;;;4.01;60.88